Time;durP1;ratioP1;P1;durP2;ratioP2;P2;SDS_P1;SDS_P2;PMS_P1;PMS_P2;Temp;Humidity;BMP_temperature;BMP_pressure;BME280_temperature;BME280_humidity;BME280_pressure;Samples;Min_cycle;Max_cycle;Signal;HPM_P1;HPM_P2
2022/09/08 00:01:09;;;;;;;5.85;2.00;;;;;;;;;;5051231;28;20680;-67
2022/09/08 00:03:34;;;;;;;4.68;1.70;;;;;;;;;;5045197;28;20215;-67
2022/09/08 00:06:01;;;;;;;6.65;2.05;;;;;;;;;;5049172;28;20211;-67
2022/09/08 00:08:27;;;;;;;7.25;2.33;;;;;;;;;;5049984;28;20218;-67
2022/09/08 00:10:54;;;;;;;4.72;1.88;;;;;;;;;;5052457;28;20233;-67
2022/09/08 00:13:19;;;;;;;5.07;1.70;;;;;;;;;;5051567;28;20769;-67
2022/09/08 00:15:44;;;;;;;4.70;1.70;;;;;;;;;;5051545;28;20302;-67
2022/09/08 00:18:10;;;;;;;4.47;1.65;;;;;;;;;;5034611;28;20663;-67
2022/09/08 00:20:35;;;;;;;4.57;1.60;;;;;;;;;;5031547;28;20227;-67
2022/09/08 00:23:00;;;;;;;7.00;1.90;;;;;;;;;;5031702;28;20216;-67
2022/09/08 00:25:26;;;;;;;5.43;2.00;;;;;;;;;;5032202;28;20208;-67
2022/09/08 00:27:52;;;;;;;5.32;1.85;;;;;;;;;;5029874;28;20319;-67
2022/09/08 00:30:17;;;;;;;5.32;1.63;;;;;;;;;;5030492;28;20720;-67
2022/09/08 00:32:42;;;;;;;6.78;1.75;;;;;;;;;;5032031;28;20208;-67
2022/09/08 00:35:14;;;;;;;5.13;1.70;;;;;;;;;;5030659;28;20350;-67
2022/09/08 00:37:40;;;;;;;5.35;1.70;;;;;;;;;;5030682;28;20655;-66
2022/09/08 00:40:06;;;;;;;4.00;1.60;;;;;;;;;;5031342;28;20224;-67
2022/09/08 00:42:31;;;;;;;6.20;1.77;;;;;;;;;;5029620;28;20560;-67
2022/09/08 00:44:56;;;;;;;4.65;1.80;;;;;;;;;;5031930;28;20211;-67
2022/09/08 00:47:25;;;;;;;5.00;1.70;;;;;;;;;;5031175;28;20626;-68
2022/09/08 00:49:53;;;;;;;6.30;1.85;;;;;;;;;;5029714;28;20207;-68
2022/09/08 00:52:18;;;;;;;8.50;1.90;;;;;;;;;;5031292;28;20212;-68
2022/09/08 00:54:43;;;;;;;5.22;2.03;;;;;;;;;;5030300;28;20231;-68
2022/09/08 00:57:09;;;;;;;4.75;1.92;;;;;;;;;;5029116;28;20211;-68
2022/09/08 00:59:36;;;;;;;7.78;2.40;;;;;;;;;;5031832;28;20229;-68
2022/09/08 01:02:04;;;;;;;9.13;2.10;;;;;;;;;;5029913;28;20208;-67
2022/09/08 01:04:29;;;;;;;7.82;2.10;;;;;;;;;;5038587;28;20771;-68
2022/09/08 01:12:45;;;;;;;11.73;4.30;;;;;;;;;;5029986;28;20262;-69
2022/09/08 01:15:11;;;;;;;13.38;5.82;;;;;;;;;;5029688;28;20231;-68
2022/09/08 01:17:37;;;;;;;19.17;6.75;;;;;;;;;;5029302;28;20208;-69
2022/09/08 01:20:02;;;;;;;12.25;6.20;;;;;;;;;;5029634;28;20552;-68
2022/09/08 01:22:27;;;;;;;16.50;6.88;;;;;;;;;;5029999;28;20215;-68
2022/09/08 01:25:05;;;;;;;16.80;7.38;;;;;;;;;;5030577;28;20242;-68
2022/09/08 01:27:30;;;;;;;12.82;5.80;;;;;;;;;;5031235;28;20693;-68
2022/09/08 01:29:59;;;;;;;13.63;5.60;;;;;;;;;;5031303;28;20267;-67
2022/09/08 01:32:25;;;;;;;16.27;6.15;;;;;;;;;;5028577;28;20593;-68
2022/09/08 01:34:52;;;;;;;13.93;6.65;;;;;;;;;;5029902;28;20303;-68
2022/09/08 01:37:17;;;;;;;10.48;5.03;;;;;;;;;;5030768;28;20204;-67
2022/09/08 01:39:43;;;;;;;12.15;5.03;;;;;;;;;;5029094;28;20593;-67
2022/09/08 01:42:08;;;;;;;11.82;4.85;;;;;;;;;;5030627;28;20399;-70
2022/09/08 01:44:34;;;;;;;10.77;4.60;;;;;;;;;;5014636;28;20216;-67
2022/09/08 01:46:59;;;;;;;7.55;3.35;;;;;;;;;;5017203;28;20227;-67
2022/09/08 01:49:24;;;;;;;9.35;3.38;;;;;;;;;;5022717;28;20215;-67
2022/09/08 01:51:50;;;;;;;9.65;3.35;;;;;;;;;;4998302;28;20212;-66
2022/09/08 01:54:15;;;;;;;7.38;3.00;;;;;;;;;;5008889;28;20235;-67
2022/09/08 01:56:40;;;;;;;7.00;2.90;;;;;;;;;;5012797;28;20226;-66
2022/09/08 01:59:05;;;;;;;5.90;2.30;;;;;;;;;;5016074;28;20247;-66
2022/09/08 02:01:31;;;;;;;8.18;2.30;;;;;;;;;;5022753;28;20210;-67
2022/09/08 02:03:56;;;;;;;6.78;2.60;;;;;;;;;;5015908;28;20212;-67
2022/09/08 02:06:22;;;;;;;9.32;3.15;;;;;;;;;;5004411;28;21353;-67
2022/09/08 02:08:53;;;;;;;6.22;2.67;;;;;;;;;;5020111;28;20227;-68
2022/09/08 02:11:19;;;;;;;8.20;3.20;;;;;;;;;;5023922;28;20223;-67
2022/09/08 02:13:44;;;;;;;8.43;2.65;;;;;;;;;;5019929;28;20219;-67
2022/09/08 02:16:11;;;;;;;6.28;2.58;;;;;;;;;;5031537;28;20216;-67
2022/09/08 02:18:36;;;;;;;6.85;2.58;;;;;;;;;;5019491;28;20550;-67
2022/09/08 02:21:03;;;;;;;6.63;2.85;;;;;;;;;;5017826;28;20211;-67
2022/09/08 02:23:29;;;;;;;8.82;2.70;;;;;;;;;;5039854;28;20731;-67
2022/09/08 02:25:54;;;;;;;8.07;2.85;;;;;;;;;;5024085;28;20303;-67
2022/09/08 02:28:19;;;;;;;7.65;2.90;;;;;;;;;;5023112;28;20224;-66
2022/09/08 02:30:45;;;;;;;8.32;2.97;;;;;;;;;;5023837;28;20265;-66
2022/09/08 02:33:10;;;;;;;7.85;2.88;;;;;;;;;;5024029;28;20219;-67
2022/09/08 02:35:35;;;;;;;6.90;3.00;;;;;;;;;;5038362;28;20258;-67
2022/09/08 02:38:01;;;;;;;7.50;3.10;;;;;;;;;;5000062;28;20648;-67
2022/09/08 02:40:26;;;;;;;6.55;2.90;;;;;;;;;;4996434;28;20224;-67
2022/09/08 02:42:52;;;;;;;7.32;2.90;;;;;;;;;;4996065;28;20661;-67
2022/09/08 02:45:17;;;;;;;9.90;3.53;;;;;;;;;;5003198;28;20259;-67
2022/09/08 02:47:43;;;;;;;6.78;3.22;;;;;;;;;;5019434;28;20212;-67
2022/09/08 02:50:08;;;;;;;8.60;3.03;;;;;;;;;;5003385;28;20212;-67
2022/09/08 02:52:34;;;;;;;8.23;3.05;;;;;;;;;;5009866;28;20278;-66
2022/09/08 02:54:59;;;;;;;7.22;2.60;;;;;;;;;;5023905;28;20278;-67
2022/09/08 02:57:24;;;;;;;8.73;2.88;;;;;;;;;;5022115;28;20216;-66
2022/09/08 02:59:50;;;;;;;9.35;2.72;;;;;;;;;;5018886;28;20214;-66
2022/09/08 03:02:15;;;;;;;6.55;2.50;;;;;;;;;;5014921;28;20211;-66
2022/09/08 03:04:40;;;;;;;8.10;2.60;;;;;;;;;;5000958;28;20204;-66
2022/09/08 03:07:07;;;;;;;5.78;2.20;;;;;;;;;;5000545;28;20312;-67
2022/09/08 03:09:32;;;;;;;4.10;1.98;;;;;;;;;;5022975;28;20453;-68
2022/09/08 03:11:58;;;;;;;6.53;2.10;;;;;;;;;;5022026;28;20613;-68
2022/09/08 03:14:23;;;;;;;5.90;2.30;;;;;;;;;;5022721;28;20274;-68
2022/09/08 03:16:48;;;;;;;7.60;2.10;;;;;;;;;;5018176;28;20226;-67
2022/09/08 03:19:14;;;;;;;7.55;2.13;;;;;;;;;;5003376;28;20212;-67
2022/09/08 03:21:39;;;;;;;5.68;2.33;;;;;;;;;;5001692;28;20470;-67
2022/09/08 03:24:04;;;;;;;7.80;1.92;;;;;;;;;;5010030;28;20298;-68
2022/09/08 03:26:29;;;;;;;6.18;2.13;;;;;;;;;;5015043;28;20800;-66
2022/09/08 03:28:55;;;;;;;5.47;2.40;;;;;;;;;;5017011;28;20682;-66
2022/09/08 03:31:20;;;;;;;6.93;2.10;;;;;;;;;;5021756;28;20262;-66
2022/09/08 03:33:46;;;;;;;6.50;2.28;;;;;;;;;;5037859;28;20240;-68
2022/09/08 03:36:12;;;;;;;6.60;2.35;;;;;;;;;;5036068;28;20212;-66
2022/09/08 03:38:37;;;;;;;8.38;2.30;;;;;;;;;;5017667;28;20262;-66
2022/09/08 03:41:09;;;;;;;6.38;2.25;;;;;;;;;;5003024;28;20243;-66
2022/09/08 03:43:34;;;;;;;8.55;2.42;;;;;;;;;;5022143;28;20305;-66
2022/09/08 03:45:59;;;;;;;7.93;2.33;;;;;;;;;;5014666;28;20310;-67
2022/09/08 03:48:25;;;;;;;6.38;2.22;;;;;;;;;;5029247;28;20224;-67
2022/09/08 03:50:50;;;;;;;7.82;2.40;;;;;;;;;;5030141;28;20234;-67
2022/09/08 03:53:15;;;;;;;7.47;2.50;;;;;;;;;;5012631;28;20262;-69
2022/09/08 03:55:41;;;;;;;8.10;2.38;;;;;;;;;;5022909;28;20239;-67
2022/09/08 03:58:06;;;;;;;6.50;2.20;;;;;;;;;;5037050;28;20581;-67
2022/09/08 04:00:32;;;;;;;9.85;2.25;;;;;;;;;;5021932;28;20212;-67
2022/09/08 04:02:57;;;;;;;11.00;2.90;;;;;;;;;;5021129;28;20299;-66
2022/09/08 04:05:23;;;;;;;6.85;2.42;;;;;;;;;;5002636;28;20243;-66
2022/09/08 04:07:49;;;;;;;4.68;2.00;;;;;;;;;;5016547;28;20254;-67
2022/09/08 04:10:15;;;;;;;5.82;2.50;;;;;;;;;;5013971;28;20323;-67
2022/09/08 04:12:40;;;;;;;6.55;2.63;;;;;;;;;;5013848;28;20256;-67
2022/09/08 04:15:06;;;;;;;7.93;2.28;;;;;;;;;;5018654;28;20306;-67
2022/09/08 04:17:31;;;;;;;4.53;2.15;;;;;;;;;;5026734;28;20235;-67
2022/09/08 04:19:56;;;;;;;6.00;2.08;;;;;;;;;;5001955;28;20244;-68
2022/09/08 04:22:22;;;;;;;6.85;2.40;;;;;;;;;;5001906;28;20208;-68
2022/09/08 04:24:47;;;;;;;6.75;2.78;;;;;;;;;;5002688;28;20292;-68
2022/09/08 04:27:12;;;;;;;7.38;2.70;;;;;;;;;;5016755;28;20220;-67
2022/09/08 04:29:38;;;;;;;7.60;3.22;;;;;;;;;;5034017;28;20629;-66
2022/09/08 04:32:04;;;;;;;6.85;2.70;;;;;;;;;;4999713;28;20282;-66
2022/09/08 04:34:29;;;;;;;6.93;2.95;;;;;;;;;;5018701;28;20227;-68
2022/09/08 04:36:55;;;;;;;7.70;3.25;;;;;;;;;;5008183;28;20684;-67
2022/09/08 04:39:20;;;;;;;6.28;3.00;;;;;;;;;;5021023;28;20327;-67
2022/09/08 04:41:45;;;;;;;8.23;3.25;;;;;;;;;;5020853;28;20574;-67
2022/09/08 04:44:11;;;;;;;7.50;3.05;;;;;;;;;;5021351;28;20576;-67
2022/09/08 04:46:36;;;;;;;7.95;3.63;;;;;;;;;;5036885;28;20220;-67
2022/09/08 04:49:02;;;;;;;7.53;3.25;;;;;;;;;;5035679;28;20207;-67
2022/09/08 04:51:27;;;;;;;9.48;3.83;;;;;;;;;;5017122;28;20305;-67
2022/09/08 04:53:53;;;;;;;8.50;3.28;;;;;;;;;;5010713;28;20220;-66
2022/09/08 04:56:18;;;;;;;7.72;3.88;;;;;;;;;;5012806;28;20508;-66
2022/09/08 04:58:45;;;;;;;9.30;3.90;;;;;;;;;;5013545;28;20786;-67
2022/09/08 05:01:11;;;;;;;9.30;4.15;;;;;;;;;;5019449;28;20216;-68
2022/09/08 05:03:36;;;;;;;12.07;4.60;;;;;;;;;;5014871;28;20249;-69
2022/09/08 05:06:04;;;;;;;11.43;4.93;;;;;;;;;;5003063;28;20303;-66
2022/09/08 05:08:29;;;;;;;8.55;4.22;;;;;;;;;;5021348;28;20211;-69
2022/09/08 05:10:55;;;;;;;9.85;4.05;;;;;;;;;;5020810;28;20218;-67
2022/09/08 05:13:20;;;;;;;11.25;4.30;;;;;;;;;;5021053;28;20222;-67
2022/09/08 05:15:46;;;;;;;12.05;4.55;;;;;;;;;;5016350;28;20750;-68
2022/09/08 05:18:11;;;;;;;10.93;4.45;;;;;;;;;;4997013;28;20228;-67
2022/09/08 05:20:36;;;;;;;11.43;4.68;;;;;;;;;;4993738;28;20256;-69
2022/09/08 05:23:02;;;;;;;12.23;4.53;;;;;;;;;;4998022;28;20334;-70
2022/09/08 05:25:27;;;;;;;11.00;4.25;;;;;;;;;;5001602;28;20234;-73
2022/09/08 05:27:52;;;;;;;9.70;4.10;;;;;;;;;;5001708;28;20290;-71
2022/09/08 05:30:18;;;;;;;11.15;4.50;;;;;;;;;;5000657;28;20749;-69
2022/09/08 05:32:43;;;;;;;13.15;5.22;;;;;;;;;;5009319;28;20235;-72
2022/09/08 05:35:08;;;;;;;11.63;4.93;;;;;;;;;;5001302;28;20961;-69
2022/09/08 05:37:34;;;;;;;11.00;5.80;;;;;;;;;;5006039;28;20910;-68
2022/09/08 05:39:59;;;;;;;11.82;5.13;;;;;;;;;;4998519;28;20532;-71
2022/09/08 05:42:25;;;;;;;12.05;4.82;;;;;;;;;;4997220;28;20212;-69
2022/09/08 05:44:50;;;;;;;12.97;5.60;;;;;;;;;;5013658;28;20486;-67
2022/09/08 05:47:15;;;;;;;11.57;5.57;;;;;;;;;;5005271;28;20208;-68
2022/09/08 05:49:40;;;;;;;12.90;6.18;;;;;;;;;;5005537;28;20570;-70
2022/09/08 05:52:06;;;;;;;14.57;5.88;;;;;;;;;;5006744;28;20577;-70
2022/09/08 05:54:31;;;;;;;9.73;4.53;;;;;;;;;;5017021;28;20238;-69
2022/09/08 05:56:56;;;;;;;10.20;5.32;;;;;;;;;;5005656;28;20204;-68
2022/09/08 05:59:22;;;;;;;9.27;4.90;;;;;;;;;;5004659;28;20664;-68
2022/09/08 06:01:47;;;;;;;12.05;4.82;;;;;;;;;;4999372;28;20549;-68
2022/09/08 06:04:14;;;;;;;9.52;4.63;;;;;;;;;;4997943;28;20676;-69
2022/09/08 06:06:40;;;;;;;9.77;4.55;;;;;;;;;;5006615;28;20207;-67
2022/09/08 06:09:07;;;;;;;10.20;4.90;;;;;;;;;;5032996;28;20216;-68
2022/09/08 06:11:32;;;;;;;11.10;4.43;;;;;;;;;;5033038;28;20215;-68
2022/09/08 06:13:58;;;;;;;10.98;5.68;;;;;;;;;;5033795;28;20228;-69
2022/09/08 06:16:23;;;;;;;10.02;4.50;;;;;;;;;;5028883;28;20562;-68
2022/09/08 06:18:48;;;;;;;10.77;5.75;;;;;;;;;;5024974;28;20603;-69
2022/09/08 06:21:15;;;;;;;8.07;4.60;;;;;;;;;;5021829;28;20711;-68
2022/09/08 06:23:40;;;;;;;10.65;5.75;;;;;;;;;;5013898;28;20215;-70
2022/09/08 06:26:13;;;;;;;10.00;6.17;;;;;;;;;;5013967;28;20782;-69
2022/09/08 06:28:41;;;;;;;11.57;6.00;;;;;;;;;;5013138;28;20209;-67
2022/09/08 06:31:06;;;;;;;10.20;5.63;;;;;;;;;;5014181;28;20219;-70
2022/09/08 06:33:33;;;;;;;14.55;7.22;;;;;;;;;;5012571;28;20208;-69
2022/09/08 06:35:58;;;;;;;11.30;7.00;;;;;;;;;;5014554;28;20687;-71
2022/09/08 06:38:27;;;;;;;12.98;6.88;;;;;;;;;;5022241;28;20216;-70
2022/09/08 06:40:56;;;;;;;12.82;6.85;;;;;;;;;;5022235;28;20228;-68
2022/09/08 06:43:23;;;;;;;9.35;6.95;;;;;;;;;;5032406;28;20219;-70
2022/09/08 06:45:49;;;;;;;12.05;7.22;;;;;;;;;;5032436;28;20425;-71
2022/09/08 06:48:19;;;;;;;11.85;6.88;;;;;;;;;;5032374;28;20444;-70
2022/09/08 06:50:50;;;;;;;12.50;7.00;;;;;;;;;;5015243;28;20568;-69
2022/09/08 06:53:17;;;;;;;9.32;6.10;;;;;;;;;;5028400;28;20224;-69
2022/09/08 06:55:46;;;;;;;10.27;5.57;;;;;;;;;;5017832;28;20822;-67
2022/09/08 06:58:25;;;;;;;9.15;4.78;;;;;;;;;;5029912;28;20211;-69
2022/09/08 07:00:54;;;;;;;10.98;6.15;;;;;;;;;;5029186;28;20228;-67
2022/09/08 07:03:24;;;;;;;10.50;5.22;;;;;;;;;;5021982;28;20554;-67
2022/09/08 07:05:54;;;;;;;9.23;5.57;;;;;;;;;;5034088;28;20285;-67
2022/09/08 07:08:35;;;;;;;12.55;5.13;;;;;;;;;;5018378;28;20790;-66
2022/09/08 07:11:09;;;;;;;11.95;5.38;;;;;;;;;;5019449;28;20231;-67
2022/09/08 07:13:40;;;;;;;10.00;4.90;;;;;;;;;;5013916;28;20199;-67
2022/09/08 07:16:09;;;;;;;11.88;4.95;;;;;;;;;;5010686;28;20580;-66
2022/09/08 07:18:38;;;;;;;8.05;4.63;;;;;;;;;;5024062;28;20212;-67
2022/09/08 07:21:11;;;;;;;11.05;5.18;;;;;;;;;;5010826;28;20254;-66
2022/09/08 07:23:37;;;;;;;10.57;5.10;;;;;;;;;;5009182;28;20215;-67
2022/09/08 07:26:03;;;;;;;7.55;4.95;;;;;;;;;;5010584;28;20216;-67
2022/09/08 07:28:29;;;;;;;7.30;4.45;;;;;;;;;;5010236;28;20204;-66
2022/09/08 07:30:57;;;;;;;13.00;5.50;;;;;;;;;;5012557;28;20299;-67
2022/09/08 07:33:25;;;;;;;10.23;6.00;;;;;;;;;;5009847;28;20212;-67
2022/09/08 07:35:53;;;;;;;9.07;5.57;;;;;;;;;;5026411;28;20229;-66
2022/09/08 07:38:28;;;;;;;8.57;5.53;;;;;;;;;;5044731;28;20241;-67
2022/09/08 07:40:53;;;;;;;10.38;5.22;;;;;;;;;;5029242;28;20227;-69
2022/09/08 07:43:18;;;;;;;9.07;4.30;;;;;;;;;;5030469;28;20220;-68
2022/09/08 07:45:44;;;;;;;8.80;4.63;;;;;;;;;;5030302;28;20207;-70
2022/09/08 07:48:14;;;;;;;9.50;4.40;;;;;;;;;;5030326;28;20258;-70
2022/09/08 07:50:55;;;;;;;9.82;5.32;;;;;;;;;;5029067;28;20284;-70
2022/09/08 07:53:28;;;;;;;8.52;5.32;;;;;;;;;;5010747;28;20658;-70
2022/09/08 07:55:54;;;;;;;8.20;4.97;;;;;;;;;;5010414;28;20240;-70
2022/09/08 07:58:21;;;;;;;9.73;5.35;;;;;;;;;;5024082;28;20212;-69
2022/09/08 08:00:48;;;;;;;10.68;6.00;;;;;;;;;;5026194;28;20623;-69
2022/09/08 08:03:14;;;;;;;10.18;6.13;;;;;;;;;;5010110;28;20216;-69
2022/09/08 08:05:44;;;;;;;9.52;6.20;;;;;;;;;;5010184;28;20295;-69
2022/09/08 08:08:16;;;;;;;9.18;5.70;;;;;;;;;;5008919;28;20602;-70
2022/09/08 08:10:46;;;;;;;9.55;5.22;;;;;;;;;;5010221;28;20726;-70
2022/09/08 08:13:15;;;;;;;8.65;5.53;;;;;;;;;;5009257;28;20216;-70
2022/09/08 08:15:46;;;;;;;8.32;5.40;;;;;;;;;;5025627;28;20309;-70
2022/09/08 08:18:18;;;;;;;9.05;5.40;;;;;;;;;;5042003;28;20204;-70
2022/09/08 08:20:45;;;;;;;9.95;5.30;;;;;;;;;;5048196;28;20604;-71
2022/09/08 08:23:12;;;;;;;8.55;5.15;;;;;;;;;;5049325;28;20213;-70
2022/09/08 08:25:41;;;;;;;8.68;6.18;;;;;;;;;;5049999;28;20223;-71
2022/09/08 08:28:10;;;;;;;7.43;5.47;;;;;;;;;;5048748;28;20226;-70
2022/09/08 08:30:37;;;;;;;9.52;6.03;;;;;;;;;;5048855;28;20215;-71
2022/09/08 08:33:10;;;;;;;8.98;5.97;;;;;;;;;;5047346;28;20214;-71
2022/09/08 08:35:44;;;;;;;11.30;6.38;;;;;;;;;;5048557;28;20633;-71
2022/09/08 08:38:13;;;;;;;10.00;7.00;;;;;;;;;;5029728;28;20230;-70
2022/09/08 08:40:53;;;;;;;7.75;6.28;;;;;;;;;;5027287;28;20246;-70
2022/09/08 08:43:25;;;;;;;8.48;6.30;;;;;;;;;;5028214;28;20208;-71
2022/09/08 08:45:57;;;;;;;8.90;6.45;;;;;;;;;;5029733;28;20207;-70
2022/09/08 08:48:26;;;;;;;11.10;7.97;;;;;;;;;;5028744;28;20211;-73
2022/09/08 08:50:52;;;;;;;11.13;7.63;;;;;;;;;;5030026;28;20299;-72
2022/09/08 08:53:22;;;;;;;15.07;9.40;;;;;;;;;;5048904;28;20302;-71
2022/09/08 08:56:01;;;;;;;12.00;9.05;;;;;;;;;;5047386;28;20300;-70
2022/09/08 08:58:27;;;;;;;12.65;9.55;;;;;;;;;;5047632;28;20752;-64
2022/09/08 09:00:57;;;;;;;10.65;7.63;;;;;;;;;;5049723;28;20212;-64
2022/09/08 09:03:28;;;;;;;10.95;8.10;;;;;;;;;;5047538;28;20211;-64
2022/09/08 09:05:55;;;;;;;12.18;9.10;;;;;;;;;;5014424;28;20295;-64
2022/09/08 09:08:34;;;;;;;11.90;9.00;;;;;;;;;;5007069;28;20756;-64
2022/09/08 09:11:07;;;;;;;12.55;8.82;;;;;;;;;;5008483;28;20244;-63
2022/09/08 09:13:35;;;;;;;11.18;8.70;;;;;;;;;;5007757;28;20210;-64
2022/09/08 09:16:08;;;;;;;10.77;7.38;;;;;;;;;;5007802;28;20220;-64
2022/09/08 09:18:37;;;;;;;13.25;7.28;;;;;;;;;;5032217;28;20207;-64
2022/09/08 09:21:03;;;;;;;10.00;6.95;;;;;;;;;;5027774;28;20227;-64
2022/09/08 09:23:34;;;;;;;10.07;6.85;;;;;;;;;;5026761;28;20222;-64
2022/09/08 09:26:00;;;;;;;9.43;6.20;;;;;;;;;;5029330;28;20208;-65
2022/09/08 09:28:44;;;;;;;12.52;6.72;;;;;;;;;;5020134;28;20212;-64
2022/09/08 09:31:18;;;;;;;12.80;6.85;;;;;;;;;;5007162;28;20226;-63
2022/09/08 09:33:47;;;;;;;7.68;5.45;;;;;;;;;;5017042;28;20214;-64
2022/09/08 09:36:19;;;;;;;9.27;5.43;;;;;;;;;;5023713;28;20218;-64
2022/09/08 09:38:59;;;;;;;8.20;5.35;;;;;;;;;;5027007;28;20631;-64
2022/09/08 09:41:27;;;;;;;13.05;6.25;;;;;;;;;;5027495;28;20280;-64
2022/09/08 09:44:01;;;;;;;11.23;7.57;;;;;;;;;;5024203;28;20220;-64
2022/09/08 09:46:36;;;;;;;11.60;7.30;;;;;;;;;;5008987;28;20219;-65
2022/09/08 09:49:05;;;;;;;10.25;7.18;;;;;;;;;;5007619;28;20242;-65
2022/09/08 09:51:34;;;;;;;8.57;6.13;;;;;;;;;;5017558;28;20206;-64
2022/09/08 09:54:03;;;;;;;10.73;6.07;;;;;;;;;;5048547;28;20219;-64
2022/09/08 09:56:29;;;;;;;9.80;6.05;;;;;;;;;;5048559;28;20211;-65
2022/09/08 09:58:55;;;;;;;8.18;5.57;;;;;;;;;;5047974;28;20222;-64
2022/09/08 10:01:22;;;;;;;9.38;5.45;;;;;;;;;;5048402;28;20261;-64
2022/09/08 10:03:47;;;;;;;7.95;5.10;;;;;;;;;;5047431;28;20295;-62
2022/09/08 10:06:17;;;;;;;11.35;5.38;;;;;;;;;;5047408;28;20323;-69
2022/09/08 10:08:49;;;;;;;8.25;4.57;;;;;;;;;;5047071;28;20735;-69
2022/09/08 10:11:17;;;;;;;9.00;4.53;;;;;;;;;;5047838;28;20226;-71
2022/09/08 10:13:43;;;;;;;8.75;4.28;;;;;;;;;;5048466;28;20230;-69
2022/09/08 10:16:21;;;;;;;6.75;3.88;;;;;;;;;;5048366;28;20243;-69
2022/09/08 10:18:51;;;;;;;7.15;3.45;;;;;;;;;;5027662;28;20338;-69
2022/09/08 10:21:22;;;;;;;6.30;2.80;;;;;;;;;;5037508;28;20271;-69
2022/09/08 10:23:52;;;;;;;6.65;3.17;;;;;;;;;;5030674;28;20641;-69
2022/09/08 10:26:20;;;;;;;6.90;3.15;;;;;;;;;;5029731;28;20210;-69
2022/09/08 10:28:51;;;;;;;6.82;3.00;;;;;;;;;;5032376;28;20220;-70
2022/09/08 10:31:16;;;;;;;6.25;2.90;;;;;;;;;;5030715;28;20227;-69
2022/09/08 10:33:49;;;;;;;7.03;3.03;;;;;;;;;;5031628;28;20550;-70
2022/09/08 10:36:14;;;;;;;7.40;3.33;;;;;;;;;;5031775;28;20211;-70
2022/09/08 10:38:56;;;;;;;8.77;3.28;;;;;;;;;;5032336;28;20685;-70
2022/09/08 10:41:27;;;;;;;7.68;2.83;;;;;;;;;;5029240;28;20249;-72
2022/09/08 10:43:53;;;;;;;6.88;2.65;;;;;;;;;;5030674;28;20211;-66
2022/09/08 10:46:20;;;;;;;6.97;2.90;;;;;;;;;;5031511;28;20220;-65
2022/09/08 10:48:45;;;;;;;5.00;2.63;;;;;;;;;;5031249;28;20354;-65
2022/09/08 10:51:19;;;;;;;6.30;2.80;;;;;;;;;;5033981;28;20298;-66
2022/09/08 10:53:56;;;;;;;5.05;2.10;;;;;;;;;;5049339;28;20214;-72
2022/09/08 10:56:27;;;;;;;6.65;2.60;;;;;;;;;;5051086;28;20301;-71
2022/09/08 10:58:55;;;;;;;6.65;2.38;;;;;;;;;;5041000;28;20220;-72
2022/09/08 11:01:39;;;;;;;6.15;2.67;;;;;;;;;;5030402;28;20589;-72
2022/09/08 11:04:06;;;;;;;7.07;2.90;;;;;;;;;;5028157;28;20212;-72
2022/09/08 11:06:35;;;;;;;7.05;3.20;;;;;;;;;;5031725;28;20227;-72
2022/09/08 11:09:08;;;;;;;6.75;2.92;;;;;;;;;;5030280;28;20212;-70
2022/09/08 11:11:45;;;;;;;6.47;2.58;;;;;;;;;;5030383;28;20724;-72
2022/09/08 11:14:11;;;;;;;7.45;2.45;;;;;;;;;;5028831;28;20235;-72
2022/09/08 11:16:51;;;;;;;8.13;2.20;;;;;;;;;;5030345;28;20203;-73
2022/09/08 11:19:17;;;;;;;6.85;2.30;;;;;;;;;;5023045;28;20211;-72
2022/09/08 11:21:58;;;;;;;6.47;2.88;;;;;;;;;;5010222;28;20220;-73
2022/09/08 11:24:24;;;;;;;6.97;2.53;;;;;;;;;;4995508;28;20267;-73
2022/09/08 11:26:49;;;;;;;7.07;2.30;;;;;;;;;;5018720;28;20223;-72
2022/09/08 11:29:16;;;;;;;5.20;2.42;;;;;;;;;;5027730;28;20562;-71
2022/09/08 11:31:42;;;;;;;9.02;2.75;;;;;;;;;;5027677;28;20215;-71
2022/09/08 11:34:20;;;;;;;6.43;2.75;;;;;;;;;;5018241;28;20278;-72
2022/09/08 11:36:51;;;;;;;6.43;2.00;;;;;;;;;;5015169;28;20212;-71
2022/09/08 11:39:26;;;;;;;5.03;2.00;;;;;;;;;;5027174;28;20231;-73
2022/09/08 11:41:55;;;;;;;5.40;1.70;;;;;;;;;;5026900;28;20587;-72
2022/09/08 11:44:21;;;;;;;6.72;2.60;;;;;;;;;;5027948;28;20242;-71
2022/09/08 11:46:51;;;;;;;9.60;2.35;;;;;;;;;;5030191;28;20222;-70
2022/09/08 11:49:36;;;;;;;8.90;2.60;;;;;;;;;;5029239;28;20218;-71
2022/09/08 11:52:10;;;;;;;7.13;2.42;;;;;;;;;;5034349;28;20311;-70
2022/09/08 11:54:44;;;;;;;6.88;2.53;;;;;;;;;;5030131;28;20770;-71
2022/09/08 11:57:14;;;;;;;6.88;1.88;;;;;;;;;;5021706;28;20691;-73
2022/09/08 11:59:42;;;;;;;8.38;1.80;;;;;;;;;;5026243;28;20715;-71
2022/09/08 12:02:07;;;;;;;7.35;1.92;;;;;;;;;;5029894;28;20216;-72
2022/09/08 12:04:40;;;;;;;6.38;1.20;;;;;;;;;;5026513;28;20262;-71
2022/09/08 12:07:10;;;;;;;6.05;1.40;;;;;;;;;;5025392;28;20650;-72
2022/09/08 12:09:45;;;;;;;11.85;1.73;;;;;;;;;;5028467;28;20257;-71
2022/09/08 12:12:11;;;;;;;8.55;1.50;;;;;;;;;;5016226;28;20230;-72
2022/09/08 12:14:36;;;;;;;6.85;1.20;;;;;;;;;;5029909;28;20224;-71
2022/09/08 12:17:02;;;;;;;7.07;1.38;;;;;;;;;;5026500;28;20516;-70
2022/09/08 12:19:35;;;;;;;5.25;1.40;;;;;;;;;;5032292;28;20254;-71
2022/09/08 12:22:03;;;;;;;8.10;1.67;;;;;;;;;;5027577;28;20219;-71
2022/09/08 12:24:35;;;;;;;6.65;1.60;;;;;;;;;;5029473;28;20709;-71
2022/09/08 12:27:14;;;;;;;4.45;1.60;;;;;;;;;;5024952;28;20212;-70
2022/09/08 12:29:55;;;;;;;7.68;1.40;;;;;;;;;;5026121;28;20208;-71
2022/09/08 12:32:39;;;;;;;8.23;1.48;;;;;;;;;;5017154;28;20224;-72
2022/09/08 12:35:05;;;;;;;6.78;1.42;;;;;;;;;;5025841;28;20231;-72
2022/09/08 12:37:31;;;;;;;10.07;1.73;;;;;;;;;;5026049;28;20208;-71
2022/09/08 12:40:09;;;;;;;7.68;1.50;;;;;;;;;;5019341;28;20220;-71
2022/09/08 12:42:35;;;;;;;7.10;1.70;;;;;;;;;;5026254;28;20260;-71
2022/09/08 12:45:06;;;;;;;6.47;1.65;;;;;;;;;;5028726;28;20277;-70
2022/09/08 12:47:32;;;;;;;6.30;1.50;;;;;;;;;;5028340;28;20230;-71
2022/09/08 12:50:02;;;;;;;8.68;1.17;;;;;;;;;;5029353;28;20208;-71
2022/09/08 12:52:34;;;;;;;5.97;1.23;;;;;;;;;;5029962;28;20546;-69
2022/09/08 12:55:18;;;;;;;7.38;1.52;;;;;;;;;;5016049;28;20242;-71
2022/09/08 12:57:47;;;;;;;8.63;1.40;;;;;;;;;;5019000;28;20208;-71
2022/09/08 13:00:13;;;;;;;5.70;1.23;;;;;;;;;;5017920;28;20216;-73
2022/09/08 13:02:43;;;;;;;8.52;1.88;;;;;;;;;;5017403;28;20544;-72
2022/09/08 13:05:16;;;;;;;6.50;1.70;;;;;;;;;;5022612;28;20212;-76
2022/09/08 13:08:04;;;;;;;7.00;1.50;;;;;;;;;;5027344;28;20594;-66
2022/09/08 13:10:32;;;;;;;7.43;1.75;;;;;;;;;;5027697;28;20304;-65
2022/09/08 13:13:05;;;;;;;7.53;1.42;;;;;;;;;;5028161;28;20231;-65
2022/09/08 13:15:33;;;;;;;5.82;1.15;;;;;;;;;;5027206;28;20892;-65
2022/09/08 13:17:58;;;;;;;4.28;1.05;;;;;;;;;;5027886;28;20207;-66
2022/09/08 13:20:34;;;;;;;8.52;1.42;;;;;;;;;;5048258;28;20215;-65
2022/09/08 13:23:00;;;;;;;5.57;1.25;;;;;;;;;;5047256;28;20291;-65
2022/09/08 13:25:26;;;;;;;7.00;1.02;;;;;;;;;;5047262;28;20207;-65
2022/09/08 13:28:00;;;;;;;4.57;1.63;;;;;;;;;;5049319;28;20215;-65
2022/09/08 13:30:33;;;;;;;5.93;1.05;;;;;;;;;;5046922;28;20268;-66
2022/09/08 13:33:03;;;;;;;5.03;1.13;;;;;;;;;;5048898;28;20678;-65
2022/09/08 13:35:42;;;;;;;4.55;1.08;;;;;;;;;;5046734;28;20276;-66
2022/09/08 13:38:10;;;;;;;7.05;1.20;;;;;;;;;;5025609;28;20200;-65
2022/09/08 13:40:56;;;;;;;8.30;1.30;;;;;;;;;;5027195;28;20220;-66
2022/09/08 13:43:25;;;;;;;6.97;1.23;;;;;;;;;;5026457;28;20242;-66
2022/09/08 13:46:07;;;;;;;6.63;1.52;;;;;;;;;;5028977;28;20207;-68
2022/09/08 13:48:38;;;;;;;4.97;0.93;;;;;;;;;;5027473;28;20690;-68
2022/09/08 13:51:03;;;;;;;6.55;1.30;;;;;;;;;;5028021;28;20207;-66
2022/09/08 13:53:32;;;;;;;5.40;1.40;;;;;;;;;;5049176;28;20689;-67
2022/09/08 13:56:02;;;;;;;5.00;1.02;;;;;;;;;;5049711;28;20223;-67
2022/09/08 13:58:38;;;;;;;4.57;1.00;;;;;;;;;;5051762;28;20617;-67
2022/09/08 14:01:13;;;;;;;8.60;1.35;;;;;;;;;;5051091;28;20249;-66
2022/09/08 14:03:44;;;;;;;5.10;1.17;;;;;;;;;;5051059;28;20210;-67
2022/09/08 14:06:10;;;;;;;8.10;1.20;;;;;;;;;;5034287;28;20207;-66
2022/09/08 14:08:41;;;;;;;9.18;0.95;;;;;;;;;;5051516;28;20211;-66
2022/09/08 14:11:11;;;;;;;3.10;1.02;;;;;;;;;;5050111;28;20285;-66
2022/09/08 14:13:37;;;;;;;5.90;1.05;;;;;;;;;;5051489;28;20211;-67
2022/09/08 14:16:08;;;;;;;4.35;1.10;;;;;;;;;;5052019;28;20220;-66
2022/09/08 14:18:37;;;;;;;7.80;1.50;;;;;;;;;;5038188;28;20211;-66
2022/09/08 14:21:25;;;;;;;5.85;0.90;;;;;;;;;;5031699;28;20250;-66
2022/09/08 14:23:54;;;;;;;6.72;1.58;;;;;;;;;;5031053;28;20211;-66
2022/09/08 14:26:19;;;;;;;6.40;1.20;;;;;;;;;;5029162;28;20216;-66
2022/09/08 14:28:45;;;;;;;5.32;0.93;;;;;;;;;;5031715;28;20219;-66
2022/09/08 14:31:15;;;;;;;4.45;1.30;;;;;;;;;;5029505;28;20298;-66
2022/09/08 14:33:43;;;;;;;7.43;1.20;;;;;;;;;;5029048;28;20211;-66
2022/09/08 14:36:22;;;;;;;4.88;1.25;;;;;;;;;;5028340;28;20235;-66
2022/09/08 14:38:56;;;;;;;8.45;1.30;;;;;;;;;;5031600;28;20224;-66
2022/09/08 14:41:30;;;;;;;9.73;1.67;;;;;;;;;;5029000;28;20703;-67
2022/09/08 14:44:01;;;;;;;4.47;1.30;;;;;;;;;;5030861;28;20212;-66
2022/09/08 14:46:27;;;;;;;4.60;1.40;;;;;;;;;;5029471;28;20216;-66
2022/09/08 14:48:54;;;;;;;4.93;1.30;;;;;;;;;;5032187;28;20219;-66
2022/09/08 14:51:25;;;;;;;5.40;1.35;;;;;;;;;;5035129;28;20211;-66
2022/09/08 14:53:57;;;;;;;6.43;1.52;;;;;;;;;;5049751;28;20246;-66